Airfield :
LOGIN :

Register | Disclaimer

   EN    FR    IT 

 










Legend :    VFR   Marginal VFR   IFR   Intensive IFR   Very Intensive IFR
Visi :
Ceiling :
>= 8 km
>= 3000ft
5 to 8 km
1000 to 3000 ft
1500m to 5 km
500 to 1000 ft
800 to 1500m
200 to 500 ft
< 800m
< 200 ft
Symbols :   Thunderstorms  Fog  Heavy snow  Heavy precipitations  Wind > 20 kt
SIGMETs :     Misc.  Thunderstorms  Icing  Turbulence  Mountain Waves  Volcanic Ashes






- Airport Elevation : 28 ft
- IATA code : SOZ


LFKS - Solenzara

CURRENT METAR :
  • 271730Z AUTO 12004KT 040V170 9999 BKN058/// BKN072/// OVC190/// ///TCU 12/06 Q1009

EXPIRED METARs :
  • 271700Z AUTO VRB02KT 9999 OVC056 13/06 Q1009
  • 271630Z AUTO 18005KT 9999 -RA OVC056/// ///TCU 13/06 Q1010
  • 271600Z AUTO VRB02KT 9999 FEW040/// SCT047/// OVC058/// ///TCU 15/05 Q1011
  • 271530Z AUTO VRB03KT 9999 -RA FEW035/// SCT047/// OVC056/// ///TCU 14/04 Q1011
  • 271500Z AUTO 17004KT 120V210 9999 FEW038/// BKN056/// OVC220/// ///TCU 14/03 Q1011

TAF TAF LFKS
Valid from the 27 at 15:00 until the 28 at 15:00 UTC


271400Z 2715/2815 27010G20KT 9999 SCT040
TEMPO 2721/2806 27020G30KT
PROB30 2800/2805 27025G45KT
BECMG 2806/2808 04010KT



MET'MAP, your aeronautical weather chart ! - Copyright ORBIFLY December 2007 - Disclaimer

ORBIFLY MET'MAP TEAM :

Programming & Development : Alexandra Zaïnal
Concept & original design : Baudouin d'Aumeries
Assistance for programming : Marc-Olivier Méhu
Technical & hardware support : Manuel Goepfert

Contact : metmap@orbifly.com




SOURCES & CREDITS :

   NOAA